Time;durP1;ratioP1;P1;durP2;ratioP2;P2;SDS_P1;SDS_P2;PMS_P1;PMS_P2;Temp;Humidity;BMP_temperature;BMP_pressure;BME280_temperature;BME280_humidity;BME280_pressure;Samples;Min_cycle;Max_cycle;Signal;HPM_P1;HPM_P2
2023/03/19 00:01:42;;;;;;;1.45;1.35;;;;;;;10.41;100.00;100987.06;5072612;28;20032;-73
2023/03/19 00:04:07;;;;;;;1.88;1.48;;;;;;;10.36;100.00;100986.81;5072516;28;20036;-73
2023/03/19 00:06:33;;;;;;;2.25;1.55;;;;;;;10.40;100.00;100996.91;5071157;28;20074;-73
2023/03/19 00:08:59;;;;;;;2.72;1.40;;;;;;;10.36;100.00;100995.63;5072313;28;20038;-73
2023/03/19 00:11:24;;;;;;;1.63;1.30;;;;;;;10.35;100.00;100988.66;5088174;28;20055;-74
2023/03/19 00:13:50;;;;;;;2.05;1.65;;;;;;;10.34;100.00;100997.66;5091398;28;20138;-73
2023/03/19 00:16:15;;;;;;;4.82;2.40;;;;;;;10.33;100.00;101003.19;5091593;28;20032;-73
2023/03/19 00:18:41;;;;;;;1.50;1.40;;;;;;;10.34;100.00;100997.66;5091645;28;20081;-73
2023/03/19 00:21:07;;;;;;;2.95;1.40;;;;;;;10.30;100.00;100997.22;5091681;28;20032;-73
2023/03/19 00:23:35;;;;;;;2.10;1.60;;;;;;;10.31;100.00;101004.19;5091504;28;20056;-73
2023/03/19 00:26:00;;;;;;;2.35;1.40;;;;;;;10.25;100.00;100985.44;5075202;28;20177;-73
2023/03/19 00:28:26;;;;;;;2.55;1.67;;;;;;;10.25;100.00;100994.25;5071943;28;20036;-73
2023/03/19 00:30:52;;;;;;;4.05;2.33;;;;;;;10.23;100.00;100996.28;5080676;28;20020;-73
2023/03/19 00:33:18;;;;;;;4.28;2.03;;;;;;;10.24;100.00;101002.44;5069870;28;20511;-73
2023/03/19 00:35:44;;;;;;;4.00;2.22;;;;;;;10.21;100.00;101003.66;5071912;28;20500;-73
2023/03/19 00:38:09;;;;;;;4.13;2.20;;;;;;;10.20;100.00;101002.00;5071754;28;20028;-72
2023/03/19 00:40:35;;;;;;;5.68;2.08;;;;;;;10.18;100.00;101005.88;5071839;28;20043;-73
2023/03/19 00:43:00;;;;;;;2.80;1.83;;;;;;;10.15;100.00;100999.09;5071723;28;20032;-74
2023/03/19 00:45:26;;;;;;;4.97;2.40;;;;;;;10.18;100.00;101008.53;5070567;28;20586;-73
2023/03/19 00:47:51;;;;;;;3.25;2.55;;;;;;;10.18;100.00;101004.03;5081940;28;20036;-73
2023/03/19 00:50:16;;;;;;;5.28;2.33;;;;;;;10.18;100.00;101003.22;5071566;28;20059;-73
2023/03/19 00:52:42;;;;;;;4.80;2.28;;;;;;;10.18;100.00;101012.03;5071632;28;20086;-73
2023/03/19 00:55:07;;;;;;;6.00;2.95;;;;;;;10.16;100.00;101006.06;5083091;28;20027;-73
2023/03/19 00:57:33;;;;;;;5.43;2.95;;;;;;;10.18;100.00;101011.22;5090861;28;20054;-73
2023/03/19 00:59:58;;;;;;;6.65;2.42;;;;;;;10.18;100.00;101004.03;5090646;28;20028;-73
2023/03/19 01:02:24;;;;;;;3.70;2.00;;;;;;;10.16;100.00;101000.72;5090805;28;20652;-73
2023/03/19 01:04:49;;;;;;;2.70;2.08;;;;;;;10.17;100.00;101002.41;5090582;28;20063;-73
2023/03/19 01:07:15;;;;;;;4.38;2.13;;;;;;;10.17;100.00;101010.38;5090625;28;20031;-73
2023/03/19 01:09:40;;;;;;;3.63;2.30;;;;;;;10.15;100.00;101009.75;5090558;28;20095;-73
2023/03/19 01:12:07;;;;;;;4.32;2.33;;;;;;;10.14;100.00;101012.59;5090617;28;20073;-73
2023/03/19 01:14:33;;;;;;;3.65;1.90;;;;;;;10.12;100.00;101004.81;5090245;28;20028;-73
2023/03/19 01:16:58;;;;;;;6.00;2.88;;;;;;;10.15;100.00;101007.09;5079828;28;20033;-73
2023/03/19 01:19:24;;;;;;;3.40;2.20;;;;;;;10.15;100.00;101009.75;5070767;28;20036;-73
2023/03/19 01:21:49;;;;;;;6.55;2.20;;;;;;;10.10;100.00;101006.81;5070974;28;20028;-73
2023/03/19 01:24:15;;;;;;;4.05;2.47;;;;;;;10.08;100.00;101008.84;5080237;28;20057;-74
2023/03/19 01:26:42;;;;;;;3.50;2.13;;;;;;;9.94;100.00;100991.91;5070787;28;20131;-73
2023/03/19 01:29:08;;;;;;;6.03;2.53;;;;;;;9.93;100.00;101006.25;5073326;28;20024;-73
2023/03/19 01:31:34;;;;;;;7.72;2.90;;;;;;;9.90;100.00;101000.47;5070824;28;20040;-73
2023/03/19 01:34:00;;;;;;;5.85;2.50;;;;;;;9.87;100.00;101001.66;5070989;28;20029;-73
2023/03/19 01:36:26;;;;;;;3.92;1.90;;;;;;;9.85;100.00;101001.00;5079418;28;20038;-73
2023/03/19 01:38:52;;;;;;;4.68;2.90;;;;;;;9.87;100.00;100997.16;5086836;28;20032;-73
2023/03/19 01:41:17;;;;;;;4.68;2.70;;;;;;;9.85;100.00;101003.69;5069329;28;20037;-73
2023/03/19 01:43:43;;;;;;;2.95;2.38;;;;;;;9.82;100.00;101004.91;5070433;28;20085;-73
2023/03/19 01:46:29;;;;;;;7.45;2.75;;;;;;;9.85;100.00;101004.53;5069185;28;20376;-73
2023/03/19 01:48:58;;;;;;;3.50;2.67;;;;;;;9.87;100.00;100991.81;5074999;28;20028;-73
2023/03/19 01:51:31;;;;;;;3.72;2.20;;;;;;;9.81;100.00;100991.75;5089861;28;20024;-73
2023/03/19 01:53:59;;;;;;;3.03;2.33;;;;;;;9.85;100.00;100996.53;5089874;28;20093;-73
2023/03/19 01:56:33;;;;;;;5.20;2.55;;;;;;;9.89;100.00;100988.97;5089555;28;20024;-73
2023/03/19 01:59:06;;;;;;;6.47;3.22;;;;;;;9.88;100.00;101000.66;5089799;28;20024;-73
2023/03/19 02:01:36;;;;;;;3.70;2.33;;;;;;;9.88;100.00;101004.16;5089715;28;20116;-73
2023/03/19 02:04:02;;;;;;;4.95;2.42;;;;;;;9.88;100.00;101001.47;5089751;28;20035;-73
2023/03/19 02:06:29;;;;;;;9.13;3.40;;;;;;;9.90;100.00;101000.47;5089569;28;20044;-74
2023/03/19 02:08:55;;;;;;;5.20;3.70;;;;;;;9.92;100.00;101003.75;5089423;28;20115;-73
2023/03/19 02:11:21;;;;;;;3.35;2.20;;;;;;;9.95;100.00;100995.38;5077343;28;20074;-73
2023/03/19 02:13:47;;;;;;;5.22;3.65;;;;;;;9.91;100.00;100994.94;5070047;28;20032;-73
2023/03/19 02:16:14;;;;;;;4.65;2.63;;;;;;;9.94;100.00;100999.91;5084200;28;20041;-73
2023/03/19 02:18:40;;;;;;;5.90;3.20;;;;;;;9.94;100.00;100997.22;5084714;28;20082;-73
2023/03/19 02:21:09;;;;;;;7.75;2.88;;;;;;;9.96;100.00;100997.06;5089312;28;20127;-73
2023/03/19 02:23:37;;;;;;;5.20;3.35;;;;;;;9.96;100.00;100997.88;5089203;28;20099;-73
2023/03/19 02:26:07;;;;;;;4.10;2.85;;;;;;;9.97;100.00;100993.38;5089423;28;20031;-73
2023/03/19 02:28:35;;;;;;;3.75;3.00;;;;;;;9.97;100.00;101002.19;5089151;28;20107;-73
2023/03/19 02:31:01;;;;;;;6.45;3.10;;;;;;;9.98;100.00;100995.00;5089320;28;20034;-73
2023/03/19 02:33:26;;;;;;;8.30;3.38;;;;;;;9.98;100.00;100998.53;5089196;28;20036;-73
2023/03/19 02:35:53;;;;;;;6.43;3.15;;;;;;;9.98;100.00;101003.00;5087797;28;20077;-73
2023/03/19 02:38:21;;;;;;;6.00;3.10;;;;;;;9.97;100.00;101004.84;5089227;28;20019;-73
2023/03/19 02:41:00;;;;;;;4.90;3.70;;;;;;;9.97;100.00;101004.03;5070869;28;20056;-73
2023/03/19 02:43:25;;;;;;;6.45;3.85;;;;;;;9.95;100.00;100998.06;5073786;28;20028;-73
2023/03/19 02:45:52;;;;;;;6.97;3.85;;;;;;;9.93;100.00;101002.75;5077554;28;20117;-73
2023/03/19 02:48:17;;;;;;;4.78;3.00;;;;;;;9.91;100.00;101005.59;5089121;28;20070;-73
2023/03/19 02:50:43;;;;;;;4.47;3.33;;;;;;;9.91;100.00;101010.13;5089004;28;20060;-73
2023/03/19 02:53:09;;;;;;;6.28;3.85;;;;;;;9.92;100.00;101011.75;5087347;28;20038;-73
2023/03/19 02:55:34;;;;;;;6.30;3.92;;;;;;;9.93;100.00;101018.72;5069740;28;20032;-74
2023/03/19 02:58:00;;;;;;;7.20;3.47;;;;;;;9.90;100.00;101014.59;5086872;28;20115;-73
2023/03/19 03:00:25;;;;;;;6.28;3.80;;;;;;;9.92;100.00;101017.09;5089032;28;20031;-73
2023/03/19 03:02:50;;;;;;;6.18;3.58;;;;;;;9.93;100.00;101013.41;5089014;28;20103;-73
2023/03/19 03:05:16;;;;;;;6.57;3.97;;;;;;;9.95;100.00;101011.38;5087029;28;20024;-73
2023/03/19 03:07:43;;;;;;;8.80;4.13;;;;;;;9.96;100.00;101021.03;5089132;28;20066;-74
2023/03/19 03:10:10;;;;;;;6.70;3.78;;;;;;;10.00;100.00;101019.63;5082390;28;20028;-73
2023/03/19 03:12:35;;;;;;;5.80;3.53;;;;;;;9.99;100.00;101021.47;5085871;28;20032;-73
2023/03/19 03:15:01;;;;;;;8.50;3.95;;;;;;;9.97;100.00;101018.16;5092841;28;20522;-73
2023/03/19 03:17:27;;;;;;;6.22;4.00;;;;;;;9.97;100.00;101020.00;5092806;28;20043;-73
2023/03/19 03:19:52;;;;;;;6.60;3.63;;;;;;;9.96;100.00;101023.69;5091499;28;20036;-72
2023/03/19 03:22:17;;;;;;;6.65;3.72;;;;;;;9.96;100.00;101021.84;5092628;28;20055;-73
2023/03/19 03:24:43;;;;;;;9.35;4.65;;;;;;;9.96;100.00;101024.53;5084034;28;20064;-72
2023/03/19 03:27:09;;;;;;;11.15;4.30;;;;;;;9.95;100.00;101020.19;5073226;28;20119;-73
2023/03/19 03:29:35;;;;;;;7.75;4.38;;;;;;;9.95;100.00;101016.69;5073143;28;20024;-73
2023/03/19 03:32:00;;;;;;;8.82;4.93;;;;;;;9.94;100.00;101021.22;5086141;28;20058;-73
2023/03/19 03:34:26;;;;;;;8.02;4.25;;;;;;;9.94;100.00;101025.72;5083972;28;20522;-72
2023/03/19 03:36:52;;;;;;;7.75;4.25;;;;;;;9.93;100.00;101027.56;5092399;28;20491;-73
2023/03/19 03:39:18;;;;;;;9.45;5.25;;;;;;;9.91;100.00;101018.13;5092368;28;20115;-73
2023/03/19 03:41:44;;;;;;;11.00;5.53;;;;;;;9.93;100.00;101024.06;5090949;28;20119;-73
2023/03/19 03:44:10;;;;;;;7.40;4.18;;;;;;;9.90;100.00;101011.94;5085862;28;20037;-73
2023/03/19 03:46:36;;;;;;;5.60;3.88;;;;;;;9.91;100.00;101012.78;5072756;28;20036;-73
2023/03/19 03:49:01;;;;;;;11.05;5.28;;;;;;;9.91;100.00;101012.78;5072703;28;20063;-72
2023/03/19 03:51:27;;;;;;;7.20;4.75;;;;;;;9.88;100.00;101025.47;5082383;28;20024;-72
2023/03/19 03:53:52;;;;;;;8.13;5.30;;;;;;;9.88;100.00;101022.78;5092113;28;20383;-73
2023/03/19 03:56:17;;;;;;;8.30;5.15;;;;;;;9.86;100.00;101026.66;5092135;28;20067;-73
2023/03/19 03:58:43;;;;;;;8.25;5.00;;;;;;;9.83;100.00;101030.53;5090278;28;20035;-73
2023/03/19 04:01:17;;;;;;;8.50;5.22;;;;;;;9.82;100.00;101028.03;5091922;28;20063;-73
2023/03/19 04:03:44;;;;;;;7.55;4.65;;;;;;;9.80;100.00;101035.41;5087909;28;20020;-73
2023/03/19 04:06:27;;;;;;;8.02;4.60;;;;;;;9.72;100.00;101030.16;5091923;28;20028;-73
2023/03/19 04:08:53;;;;;;;9.70;4.55;;;;;;;9.68;100.00;101031.56;5091883;28;20074;-72
2023/03/19 04:11:19;;;;;;;10.25;5.43;;;;;;;9.60;100.00;101033.31;5081626;28;20064;-73
2023/03/19 04:13:44;;;;;;;10.57;5.15;;;;;;;9.51;100.00;101033.59;5072343;28;20034;-73
2023/03/19 04:16:10;;;;;;;9.40;5.32;;;;;;;9.44;100.00;101038.84;5071055;28;20104;-73
2023/03/19 04:18:36;;;;;;;8.73;5.15;;;;;;;9.37;100.00;101032.59;5084860;28;20101;-73
2023/03/19 04:21:04;;;;;;;8.75;5.13;;;;;;;9.27;100.00;101027.53;5072046;28;20027;-73
2023/03/19 04:23:29;;;;;;;10.50;5.15;;;;;;;9.21;100.00;101025.63;5072014;28;20028;-72
2023/03/19 04:26:03;;;;;;;8.98;5.30;;;;;;;9.18;100.00;101032.13;5084394;28;20055;-73
2023/03/19 04:28:30;;;;;;;10.85;5.03;;;;;;;9.12;100.00;101037.38;5075667;28;20500;-72
2023/03/19 04:31:00;;;;;;;6.65;4.47;;;;;;;9.07;100.00;101037.09;5091303;28;20024;-73
2023/03/19 04:33:25;;;;;;;10.23;4.60;;;;;;;9.03;100.00;101046.44;5085004;28;20037;-73
2023/03/19 04:35:51;;;;;;;11.40;5.88;;;;;;;8.95;100.00;101042.03;5070640;28;20047;-73
2023/03/19 04:38:17;;;;;;;8.18;4.97;;;;;;;8.94;100.00;101040.38;5071906;28;20039;-73
2023/03/19 04:40:42;;;;;;;8.75;5.03;;;;;;;8.86;100.00;101038.63;5077914;28;20108;-73
2023/03/19 04:43:07;;;;;;;9.77;5.60;;;;;;;8.86;100.00;101043.13;5083995;28;20367;-73
2023/03/19 04:45:33;;;;;;;9.65;5.20;;;;;;;8.80;100.00;101044.66;5072341;28;20040;-73
2023/03/19 04:47:58;;;;;;;10.18;5.82;;;;;;;8.75;100.00;101041.69;5071724;28;20027;-73
2023/03/19 04:50:23;;;;;;;9.15;5.15;;;;;;;8.71;100.00;101046.56;5071592;28;20082;-73
2023/03/19 04:52:49;;;;;;;12.35;6.25;;;;;;;8.68;100.00;101044.25;5087307;28;20032;-73
2023/03/19 04:55:14;;;;;;;10.38;5.70;;;;;;;8.63;100.00;101045.81;5076867;28;20503;-72
2023/03/19 04:57:40;;;;;;;10.07;5.85;;;;;;;8.61;100.00;101045.97;5071474;28;20399;-73
2023/03/19 05:00:06;;;;;;;9.73;4.70;;;;;;;8.56;100.00;101049.16;5071455;28;20025;-73
2023/03/19 05:02:31;;;;;;;11.32;5.00;;;;;;;8.50;100.00;101052.53;5071345;28;20391;-73
2023/03/19 05:04:56;;;;;;;10.27;5.78;;;;;;;8.51;100.00;101056.03;5071387;28;20044;-72
2023/03/19 05:07:22;;;;;;;8.90;5.32;;;;;;;8.48;100.00;101053.72;5071299;28;20036;-73
2023/03/19 05:09:47;;;;;;;9.75;4.97;;;;;;;8.43;100.00;101061.41;5087275;28;20020;-72
2023/03/19 05:12:13;;;;;;;11.57;5.63;;;;;;;8.39;100.00;101060.94;5071099;28;20479;-73
2023/03/19 05:14:38;;;;;;;12.00;6.00;;;;;;;8.36;100.00;101071.91;5072508;28;20494;-73
2023/03/19 05:17:04;;;;;;;12.98;6.22;;;;;;;8.33;100.00;101072.22;5086549;28;20083;-73
2023/03/19 05:19:30;;;;;;;12.07;5.72;;;;;;;8.24;100.00;101068.81;5087459;28;20115;-73
2023/03/19 05:21:56;;;;;;;16.65;5.65;;;;;;;8.28;100.00;101072.78;5081711;28;20101;-73
2023/03/19 05:24:22;;;;;;;11.93;6.20;;;;;;;8.23;100.00;101071.66;5070672;28;20087;-73
2023/03/19 05:26:48;;;;;;;14.38;6.55;;;;;;;8.24;100.00;101074.13;5088917;28;20046;-73
2023/03/19 05:29:13;;;;;;;13.35;6.40;;;;;;;8.26;100.00;101077.44;5090316;28;20032;-72
2023/03/19 05:31:39;;;;;;;9.95;5.20;;;;;;;8.24;100.00;101078.63;5083782;28;20077;-73
2023/03/19 05:34:05;;;;;;;14.13;6.25;;;;;;;8.21;100.00;101084.28;5071924;28;20476;-73
2023/03/19 05:36:30;;;;;;;11.60;5.68;;;;;;;8.11;100.00;101081.84;5070870;28;20035;-72
2023/03/19 05:38:55;;;;;;;13.20;6.03;;;;;;;8.04;100.00;101087.03;5070576;28;20497;-73
2023/03/19 05:41:21;;;;;;;12.75;6.25;;;;;;;8.04;100.00;101083.53;5083454;28;20036;-73
2023/03/19 05:43:46;;;;;;;14.88;8.05;;;;;;;8.05;100.00;101082.53;5079396;28;20056;-72
2023/03/19 05:46:12;;;;;;;12.95;5.43;;;;;;;8.01;100.00;101089.19;5070350;28;20067;-73
2023/03/19 05:48:38;;;;;;;9.95;5.50;;;;;;;7.98;100.00;101095.69;5070466;28;20035;-73
2023/03/19 05:51:03;;;;;;;10.43;5.80;;;;;;;7.95;100.00;101098.69;5070401;28;20086;-73
2023/03/19 05:53:29;;;;;;;12.18;6.25;;;;;;;7.92;100.00;101098.22;5070391;28;20032;-73
2023/03/19 05:55:54;;;;;;;12.02;6.10;;;;;;;7.92;100.00;101101.69;5068953;28;20027;-73
2023/03/19 05:58:19;;;;;;;12.57;6.53;;;;;;;7.93;100.00;101107.81;5070181;28;20036;-72
2023/03/19 06:00:47;;;;;;;11.63;5.10;;;;;;;7.93;100.00;101108.66;5085326;28;20028;-73
2023/03/19 06:03:13;;;;;;;12.95;6.65;;;;;;;7.93;100.00;101103.34;5089652;28;20115;-73
2023/03/19 06:05:38;;;;;;;12.80;6.57;;;;;;;7.97;100.00;101104.66;5089859;28;20511;-73
2023/03/19 06:08:04;;;;;;;14.10;6.45;;;;;;;7.96;100.00;101105.66;5075994;28;20486;-73
2023/03/19 06:10:29;;;;;;;12.20;6.00;;;;;;;7.98;100.00;101110.78;5072084;28;20028;-73
2023/03/19 06:12:55;;;;;;;12.38;6.25;;;;;;;8.02;100.00;101112.13;5089440;28;20028;-73
2023/03/19 06:15:20;;;;;;;11.35;5.47;;;;;;;8.04;100.00;101108.28;5089398;28;20066;-73
2023/03/19 06:17:46;;;;;;;14.18;6.07;;;;;;;8.04;100.00;101110.94;5089379;28;20044;-73
2023/03/19 06:20:12;;;;;;;10.55;5.30;;;;;;;8.04;100.00;101116.25;5089220;28;20035;-73
2023/03/19 06:22:37;;;;;;;12.35;6.57;;;;;;;8.06;100.00;101121.38;5082723;28;20032;-73
2023/03/19 06:25:02;;;;;;;13.35;6.70;;;;;;;8.07;100.00;101121.22;5075447;28;20052;-73
2023/03/19 06:27:28;;;;;;;13.80;6.60;;;;;;;8.09;100.00;101129.00;5069864;28;20036;-73
2023/03/19 06:29:53;;;;;;;14.93;7.53;;;;;;;8.12;100.00;101132.16;5084381;28;20107;-73
2023/03/19 06:32:18;;;;;;;12.30;6.22;;;;;;;8.32;100.00;101135.19;5089235;28;20038;-73
2023/03/19 06:34:44;;;;;;;13.80;6.95;;;;;;;8.43;100.00;101138.47;5070631;28;20127;-73
2023/03/19 06:37:10;;;;;;;12.25;7.25;;;;;;;8.51;100.00;101138.44;5069746;28;20059;-73
2023/03/19 06:39:35;;;;;;;13.73;7.35;;;;;;;8.50;100.00;101129.63;5075647;28;20024;-73
2023/03/19 06:42:01;;;;;;;14.13;6.82;;;;;;;8.54;100.00;101136.25;5078829;28;20032;-73
2023/03/19 06:44:26;;;;;;;13.40;6.10;;;;;;;8.53;100.00;101142.56;5072995;28;20393;-73
2023/03/19 06:46:51;;;;;;;14.77;6.72;;;;;;;8.50;100.00;101148.25;5074205;28;20029;-73
2023/03/19 06:49:17;;;;;;;15.93;6.20;;;;;;;8.53;100.00;101155.84;5088908;28;20032;-73
2023/03/19 06:51:42;;;;;;;14.43;7.18;;;;;;;8.55;100.00;101153.03;5093216;28;20467;-73
2023/03/19 06:54:07;;;;;;;13.88;6.68;;;;;;;8.51;100.00;101144.59;5093096;28;20388;-73
2023/03/19 06:56:33;;;;;;;12.70;6.20;;;;;;;8.61;100.00;101157.63;5093185;28;20039;-73
2023/03/19 06:58:58;;;;;;;16.60;8.55;;;;;;;8.65;100.00;101160.78;5093080;28;20035;-73
2023/03/19 07:01:24;;;;;;;13.77;6.70;;;;;;;8.67;100.00;101159.63;5085212;28;20033;-73
2023/03/19 07:03:49;;;;;;;15.30;6.70;;;;;;;8.66;100.00;101149.97;5073494;28;20976;-73
2023/03/19 07:06:15;;;;;;;18.13;7.55;;;;;;;8.70;100.00;101161.91;5077692;28;20024;-73
2023/03/19 07:08:44;;;;;;;13.75;7.45;;;;;;;8.69;100.00;101165.56;5088665;28;20040;-73
2023/03/19 07:11:11;;;;;;;16.40;7.00;;;;;;;8.77;100.00;101176.13;5092988;28;20016;-73
2023/03/19 07:13:36;;;;;;;12.98;6.47;;;;;;;8.86;100.00;101174.28;5092782;28;20028;-67
2023/03/19 07:16:02;;;;;;;15.52;8.90;;;;;;;8.92;100.00;101165.56;5092973;28;20031;-67
2023/03/19 07:18:27;;;;;;;16.83;8.20;;;;;;;9.11;100.00;101166.91;5092610;28;20031;-66
2023/03/19 07:20:53;;;;;;;17.92;8.88;;;;;;;9.37;100.00;101171.84;5092711;28;20061;-66
2023/03/19 07:23:18;;;;;;;14.32;7.82;;;;;;;9.53;100.00;101181.50;5092399;28;20100;-67
2023/03/19 07:25:44;;;;;;;16.10;8.45;;;;;;;9.65;100.00;101184.56;5092520;28;20044;-66
2023/03/19 07:28:10;;;;;;;17.02;9.35;;;;;;;9.72;100.00;101182.81;5092549;28;20086;-66
2023/03/19 07:30:37;;;;;;;20.02;8.48;;;;;;;9.85;100.00;101179.50;5090098;28;20031;-66
2023/03/19 07:33:02;;;;;;;15.07;7.20;;;;;;;9.97;100.00;101185.22;5073087;28;20527;-67
2023/03/19 07:35:27;;;;;;;15.65;8.50;;;;;;;10.26;100.00;101192.34;5071715;28;20036;-67
2023/03/19 07:37:53;;;;;;;17.52;7.70;;;;;;;10.46;100.00;101195.28;5072909;28;20185;-66
2023/03/19 07:40:18;;;;;;;18.05;8.88;;;;;;;10.60;100.00;101188.25;5072842;28;20072;-66
2023/03/19 07:42:44;;;;;;;17.40;8.88;;;;;;;10.99;100.00;101192.38;5072808;28;20052;-66
2023/03/19 07:45:09;;;;;;;14.75;7.28;;;;;;;11.37;100.00;101185.72;5072780;28;20037;-66
2023/03/19 07:47:35;;;;;;;17.85;7.43;;;;;;;11.53;100.00;101186.47;5091933;28;20117;-66
2023/03/19 07:50:00;;;;;;;21.05;7.97;;;;;;;12.14;100.00;101189.31;5092024;28;20020;-66
2023/03/19 07:52:26;;;;;;;14.10;6.90;;;;;;;12.64;100.00;101191.75;5092137;28;20042;-67
2023/03/19 07:54:51;;;;;;;15.73;7.25;;;;;;;12.64;100.00;101197.91;5091639;28;20032;-66
2023/03/19 07:57:18;;;;;;;14.00;6.95;;;;;;;12.67;100.00;101194.84;5091861;28;20076;-67
2023/03/19 07:59:44;;;;;;;17.25;8.52;;;;;;;12.60;100.00;101194.00;5091741;28;20020;-66
2023/03/19 08:02:12;;;;;;;13.85;7.10;;;;;;;12.44;100.00;101200.56;5091657;28;20073;-71
2023/03/19 08:04:38;;;;;;;13.30;6.32;;;;;;;12.22;100.00;101199.00;5091674;28;20055;-67
2023/03/19 08:07:04;;;;;;;16.75;7.28;;;;;;;12.02;100.00;101196.22;5091681;28;20052;-67
2023/03/19 08:09:29;;;;;;;11.63;6.20;;;;;;;12.01;100.00;101207.94;5091502;28;20119;-67
2023/03/19 08:11:55;;;;;;;13.98;6.53;;;;;;;12.16;100.00;101210.50;5091705;28;20036;-67
2023/03/19 08:14:21;;;;;;;11.32;5.75;;;;;;;12.24;100.00;101203.13;5090822;28;20545;-67
2023/03/19 08:16:50;;;;;;;12.98;6.65;;;;;;;12.21;100.00;101213.41;5091696;28;20036;-66
2023/03/19 08:19:15;;;;;;;11.40;5.38;;;;;;;12.11;100.00;101218.28;5091521;28;20035;-67
2023/03/19 08:21:41;;;;;;;14.52;6.80;;;;;;;12.12;100.00;101223.44;5091187;28;20032;-67
2023/03/19 08:24:06;;;;;;;14.00;6.10;;;;;;;12.04;100.00;101220.91;5091125;28;20371;-67
2023/03/19 08:26:32;;;;;;;12.02;5.80;;;;;;;12.04;100.00;101224.41;5091377;28;20042;-67
2023/03/19 08:28:58;;;;;;;11.10;5.57;;;;;;;12.30;100.00;101214.06;5091284;28;20055;-67
2023/03/19 08:31:23;;;;;;;16.45;6.10;;;;;;;12.54;100.00;101218.88;5091307;28;20035;-67
2023/03/19 08:33:49;;;;;;;18.02;5.90;;;;;;;12.58;100.00;101228.16;5089796;28;20036;-67
2023/03/19 08:36:14;;;;;;;18.58;4.50;;;;;;;12.57;100.00;101226.50;5091194;28;20044;-67
2023/03/19 08:38:40;;;;;;;11.48;5.30;;;;;;;12.66;100.00;101219.13;5090232;28;20059;-69
2023/03/19 08:41:06;;;;;;;10.48;6.50;;;;;;;12.76;100.00;101229.44;5089976;28;20165;-67
2023/03/19 08:43:34;;;;;;;14.48;6.38;;;;;;;12.78;100.00;101240.78;5091109;28;20020;-67
2023/03/19 08:45:59;;;;;;;9.32;4.95;;;;;;;12.65;100.00;101244.22;5091169;28;20060;-66
2023/03/19 08:48:26;;;;;;;13.35;5.25;;;;;;;12.49;100.00;101242.72;5090955;28;20497;-66
2023/03/19 08:50:56;;;;;;;10.98;4.90;;;;;;;12.42;100.00;101248.06;5090912;28;20544;-67
2023/03/19 08:53:22;;;;;;;14.05;4.57;;;;;;;12.43;100.00;101254.25;5090953;28;20063;-66
2023/03/19 08:55:56;;;;;;;9.82;4.30;;;;;;;12.46;100.00;101251.16;5091127;28;20030;-67
2023/03/19 08:58:22;;;;;;;10.02;3.70;;;;;;;12.44;100.00;101261.22;5090713;28;20078;-66
2023/03/19 09:00:48;;;;;;;12.02;4.28;;;;;;;12.37;100.00;101255.03;5090892;28;20060;-66
2023/03/19 09:03:15;;;;;;;10.98;4.78;;;;;;;12.30;100.00;101251.50;5090594;28;20444;-67
2023/03/19 09:05:40;;;;;;;15.38;5.80;;;;;;;12.34;100.00;101256.28;5089742;28;20034;-67
2023/03/19 09:08:06;;;;;;;13.13;3.83;;;;;;;12.39;100.00;101261.00;5090554;28;20023;-67
2023/03/19 09:10:32;;;;;;;12.15;4.13;;;;;;;12.37;100.00;101257.72;5090565;28;20051;-66
2023/03/19 09:12:57;;;;;;;11.20;4.40;;;;;;;12.44;100.00;101263.91;5090294;28;20490;-67
2023/03/19 09:15:23;;;;;;;12.02;4.25;;;;;;;12.48;100.00;101255.28;5090338;28;20042;-66
2023/03/19 09:17:48;;;;;;;11.82;4.00;;;;;;;12.53;100.00;101276.09;5090120;28;20364;-66
2023/03/19 09:20:13;;;;;;;13.98;4.63;;;;;;;12.47;100.00;101271.53;5090101;28;20028;-66
2023/03/19 09:22:39;;;;;;;13.80;4.25;;;;;;;12.57;100.00;101277.34;5078047;28;20036;-66
2023/03/19 09:25:05;;;;;;;12.57;5.60;;;;;;;12.85;100.00;101274.56;5089007;28;20403;-66
2023/03/19 09:27:31;;;;;;;12.90;4.28;;;;;;;13.05;98.36;101277.31;5089666;28;20032;-66
2023/03/19 09:29:56;;;;;;;11.07;5.35;;;;;;;12.97;97.28;101282.84;5088788;28;20016;-66
2023/03/19 09:32:22;;;;;;;12.00;5.53;;;;;;;12.80;99.03;101290.41;5089357;28;20092;-66
2023/03/19 09:34:47;;;;;;;12.45;5.20;;;;;;;12.79;98.11;101295.97;5087854;28;20123;-66
2023/03/19 09:37:13;;;;;;;12.70;5.22;;;;;;;12.86;98.24;101289.63;5089228;28;20415;-66
2023/03/19 09:39:38;;;;;;;10.88;4.65;;;;;;;13.16;99.24;101292.78;5088653;28;20077;-67
2023/03/19 09:42:25;;;;;;;11.80;6.05;;;;;;;13.36;98.02;101303.56;5089420;28;20028;-67
2023/03/19 09:44:52;;;;;;;9.98;5.22;;;;;;;13.48;97.76;101306.47;5070529;28;20086;-67
2023/03/19 09:47:24;;;;;;;15.85;6.72;;;;;;;13.62;95.43;101307.28;5070217;28;20060;-67
2023/03/19 09:49:53;;;;;;;15.50;5.20;;;;;;;13.86;94.47;101316.59;5089612;28;20020;-67
2023/03/19 09:53:10;;;;;;;18.40;6.65;;;;;;;13.86;94.27;101315.75;5089684;28;20028;-67
2023/03/19 09:55:51;;;;;;;12.68;4.88;;;;;;;13.78;94.68;101323.00;5077265;28;20036;-67
2023/03/19 09:58:18;;;;;;;12.53;6.60;;;;;;;13.65;92.20;101308.72;5089573;28;20032;-67
2023/03/19 10:00:48;;;;;;;15.82;5.53;;;;;;;13.54;91.81;101320.88;5089425;28;20055;-67
2023/03/19 10:03:29;;;;;;;10.35;4.45;;;;;;;13.58;94.47;101322.97;5089450;28;20024;-67
2023/03/19 10:06:12;;;;;;;11.77;5.30;;;;;;;13.67;93.88;101310.19;5089605;28;20081;-67
2023/03/19 10:09:09;;;;;;;13.23;4.88;;;;;;;13.75;93.93;101317.19;5089330;28;20522;-67
2023/03/19 10:11:43;;;;;;;13.18;5.22;;;;;;;13.73;91.82;101317.41;5072049;28;20188;-66
2023/03/19 10:14:27;;;;;;;11.75;4.68;;;;;;;13.84;94.08;101310.59;5072825;28;20032;-67
2023/03/19 10:16:57;;;;;;;7.18;4.00;;;;;;;13.82;91.40;101305.44;5072935;28;20024;-67
2023/03/19 10:19:46;;;;;;;13.95;4.85;;;;;;;13.84;90.49;101309.78;5072795;28;20016;-67
2023/03/19 10:22:19;;;;;;;14.32;4.30;;;;;;;13.83;92.56;101308.94;5073023;28;20047;-67
2023/03/19 10:24:46;;;;;;;11.32;5.63;;;;;;;13.93;94.46;101311.22;5071176;28;20032;-67
2023/03/19 10:27:15;;;;;;;14.15;5.05;;;;;;;13.96;92.73;101310.78;5073096;28;20040;-66
2023/03/19 10:29:40;;;;;;;9.32;3.97;;;;;;;14.08;93.02;101317.19;5073048;28;20101;-65
2023/03/19 10:32:15;;;;;;;14.65;6.78;;;;;;;14.11;91.69;101321.31;5070726;28;20028;-67
2023/03/19 10:34:47;;;;;;;8.63;4.45;;;;;;;14.10;91.52;101317.81;5073415;28;20052;-67
2023/03/19 10:37:19;;;;;;;13.25;5.20;;;;;;;14.15;91.80;101318.00;5072820;28;20020;-67
2023/03/19 10:39:46;;;;;;;14.07;5.15;;;;;;;14.11;91.24;101313.25;5072712;28;20016;-68
2023/03/19 10:42:43;;;;;;;14.95;6.60;;;;;;;14.23;93.65;101320.47;5073445;28;20031;-67
2023/03/19 10:45:14;;;;;;;8.65;4.13;;;;;;;14.28;89.06;101321.69;5072348;28;20051;-66
2023/03/19 10:47:41;;;;;;;11.63;4.20;;;;;;;14.36;88.61;101319.63;5072826;28;20383;-67
2023/03/19 10:50:15;;;;;;;10.65;4.28;;;;;;;14.47;89.79;101320.81;5072223;28;20042;-67
2023/03/19 10:52:42;;;;;;;13.77;5.15;;;;;;;14.64;90.08;101324.69;5072640;28;20024;-68
2023/03/19 10:55:23;;;;;;;11.30;4.60;;;;;;;15.00;89.69;101325.19;5072882;28;20032;-66
2023/03/19 10:57:55;;;;;;;12.23;4.83;;;;;;;15.17;87.99;101325.50;5072089;28;20476;-66
2023/03/19 11:00:23;;;;;;;;;;;;;;;15.32;90.02;101339.47;5073091;28;20078;-65
2023/03/19 11:02:52;;;;;;;10.15;5.45;;;;;;;15.17;87.17;101341.63;5072171;28;19919;-66
2023/03/19 11:05:22;;;;;;;9.90;4.35;;;;;;;15.04;85.20;101340.69;5072497;28;20115;-66
2023/03/19 11:07:59;;;;;;;10.80;4.82;;;;;;;14.94;84.63;101334.13;5073086;28;20442;-66
2023/03/19 11:10:28;;;;;;;12.90;5.03;;;;;;;14.79;85.31;101339.75;5071995;28;20020;-66
2023/03/19 11:12:56;;;;;;;9.85;4.68;;;;;;;14.68;86.69;101341.22;5072863;28;20031;-66
2023/03/19 11:15:27;;;;;;;13.88;4.15;;;;;;;14.74;87.74;101334.19;5072404;28;20032;-66
2023/03/19 11:17:58;;;;;;;12.10;4.13;;;;;;;14.72;86.22;101338.94;5072285;28;20074;-66
2023/03/19 11:20:32;;;;;;;12.00;4.23;;;;;;;14.59;85.08;101342.50;5072559;28;20086;-66